Nearby METAR Reports

 

KKLS - Kelso Longveiw, Washington, USA
Distance from station: ESE 7mi, 11km
Updated: 2021-09-28 11:20
Overcast
Overcast
 Wind from SSE
Wind: SSE 10 mph , 17 km/h
Temperature: 57°F , 14°C
Dew Point: 54°F , 12°C
Humidity: 88%
Barometer: 30.09 inHg , 1019 hPa
Clouds: Overcast
Visibility: 10 miles , 16 km
Cloud details: Partly cloudy 1400 ft
Mostly cloudy 2700 ft
Overcast 7000 ft
2021/09/28 18:20 KKLS 281820Z AUTO 16009KT 10SM SCT014 BKN027 OVC070 14/12 A3009 RMK AO2
KSPB - Scappoose, Oregon, USA
Distance from station: SSE 29mi, 46km
Updated: 2021-09-28 10:53
Light rain, Overcast
Light rain, Overcast
 Wind from SSE
Wind: SSE 5 mph , 7 km/h
Temperature: 55°F , 13°C
Dew Point: 52°F , 11°C
Humidity: 88%
Barometer: 30.09 inHg , 1019 hPa
Summary: Light rain
Clouds: Overcast
Visibility: 7 miles , 11 km
Cloud details: Few Clouds 2800 ft
Overcast 6000 ft
2021/09/28 17:53 KSPB 281753Z AUTO 16004KT 7SM -RA FEW028 OVC060 13/11 A3009 RMK AO2 RAB01 SLP189 P0003 60007 T01330111 10133 20122 51014
 
KCLS - Chehalis Central, Washington, USA
Distance from station: N 36mi, 58km
Updated: 2021-09-28 10:35
Mist, Mostly cloudy
Mist, Mostly cloudy
 Wind from S
Wind: S 9 mph , 15 km/h
Temperature: 57°F , 14°C
Dew Point: 55°F , 13°C
Humidity: 94%
Barometer: 30.05 inHg , 1017.6 hPa
Summary: Mist
Clouds: Mostly cloudy
Visibility: 5 miles , 8 km
Cloud details: Partly cloudy 1500 ft
Mostly cloudy 2200 ft
Mostly cloudy 3000 ft
2021/09/28 17:35 KCLS 281735Z AUTO 18008KT 140V220 5SM BR SCT015 BKN022 BKN030 14/13 A3005 RMK AO2
KAST - Astoria, Oregon, USA
Distance from station: W 41mi, 66km
Updated: 2021-09-28 10:55
Overcast
Overcast
 Wind from WSW
Wind: WSW 7 mph , 11 km/h
Temperature: 55°F , 13°C
Dew Point: 52°F , 11°C
Humidity: 88%
Barometer: 30.07 inHg , 1018.3 hPa
Clouds: Overcast
Visibility: 10 miles , 16 km
Cloud details: Few Clouds 2600 ft
Mostly cloudy 4300 ft
Overcast 5000 ft
2021/09/28 17:55 KAST 281755Z AUTO 25006KT 10SM FEW026 BKN043 OVC050 13/11 A3007 RMK AO2 RAE03B36E49 SLP183 P0000 60047 T01280106 10133 20111 51021
 
KVUO - Vancouver, Washington, USA
Distance from station: SSE 42mi, 68km
Updated: 2021-09-28 10:53
Light rain, Mist, Overcast
Light rain, Mist, Overcast
 Wind from varies
Wind: varies 6 mph , 9 km/h
Temperature: 55°F , 13°C
Dew Point: 52°F , 11°C
Humidity: 88%
Barometer: 30.10 inHg , 1019.3 hPa
Summary: Light rain, Mist
Clouds: Overcast
Visibility: 5 miles , 8 km
Cloud details: Few Clouds 1700 ft
Mostly cloudy 3900 ft
Overcast 5500 ft
2021/09/28 17:53 KVUO 281753Z AUTO VRB05KT 5SM -RA BR FEW017 BKN039 OVC055 13/11 A3010 RMK AO2 RAB07 SLP194 P0002 60002 T01330111 10133 20122 53021
KHIO - Hillsboro/Portld, Oregon, USA
Distance from station: S 43mi, 69km
Updated: 2021-09-28 10:53
Light rain, Overcast
Light rain, Overcast
 Wind from S
Wind: S 7 mph , 11 km/h
Temperature: 55°F , 13°C
Dew Point: 54°F , 12°C
Humidity: 94%
Barometer: 30.10 inHg , 1019.3 hPa
Summary: Light rain
Clouds: Overcast
Visibility: 10 miles , 16 km
Cloud details: Mostly cloudy 700 ft
Overcast 5000 ft
2021/09/28 17:53 KHIO 281753Z 18006KT 10SM -RA BKN007 OVC050 13/12 A3010 RMK AO2 SLP192 P0001 60008 T01280117 10128 20106 51020
 
KPDX - Portland, Oregon, USA
Distance from station: SSE 44mi, 70km
Updated: 2021-09-28 10:53
Light rain, Overcast
Light rain, Overcast
 Wind from SSW
Wind: SSW 12 mph , 19 km/h
Temperature: 55°F , 13°C
Dew Point: 52°F , 11°C
Humidity: 88%
Barometer: 30.11 inHg , 1019.6 hPa
Summary: Light rain
Clouds: Overcast
Visibility: 10 miles , 16 km
Cloud details: Partly cloudy 1600 ft
Mostly cloudy 5000 ft
Overcast 6000 ft
2021/09/28 17:53 KPDX 281753Z 20010KT 10SM -RA SCT016 BKN050 OVC060 13/11 A3011 RMK AO2 SLP195 P0002 60003 T01330106 10133 20122 53021